Time;durP1;ratioP1;P1;durP2;ratioP2;P2;SDS_P1;SDS_P2;PMS_P1;PMS_P2;Temp;Humidity;BMP_temperature;BMP_pressure;BME280_temperature;BME280_humidity;BME280_pressure;Samples;Min_cycle;Max_cycle;Signal;HPM_P1;HPM_P2
2022/06/01 00:01:33;;;;;;;12.20;8.25;;;;;;;22.01;49.67;99920.03;4955417;28;20039;-66
2022/06/01 00:03:59;;;;;;;14.02;10.32;;;;;;;22.01;49.73;99928.97;4951182;28;20039;-62
2022/06/01 00:06:26;;;;;;;13.05;8.63;;;;;;;22.00;49.85;99931.81;4954996;28;20501;-65
2022/06/01 00:08:51;;;;;;;9.75;7.07;;;;;;;22.00;50.34;99929.13;4955902;28;20031;-65
2022/06/01 00:11:17;;;;;;;11.32;5.75;;;;;;;21.99;50.35;99931.00;4956047;28;20039;-65
2022/06/01 00:13:43;;;;;;;10.75;6.35;;;;;;;21.99;50.49;99931.00;4955898;28;20035;-65
2022/06/01 00:16:09;;;;;;;12.20;7.97;;;;;;;21.98;50.86;99923.13;4956496;28;20023;-63
2022/06/01 00:18:35;;;;;;;12.15;7.85;;;;;;;21.99;50.35;99924.75;4974850;28;20406;-64
2022/06/01 00:21:01;;;;;;;11.43;7.20;;;;;;;21.98;50.39;99928.50;4959375;28;20529;-63
2022/06/01 00:23:27;;;;;;;9.45;7.43;;;;;;;21.95;50.23;99918.91;4955584;29;20039;-64
2022/06/01 00:25:52;;;;;;;7.80;6.22;;;;;;;21.96;50.33;99931.38;4955500;28;20042;-63
2022/06/01 00:28:18;;;;;;;9.23;7.35;;;;;;;21.95;50.22;99925.16;4961753;28;20093;-64
2022/06/01 00:30:44;;;;;;;11.65;8.38;;;;;;;21.97;50.21;99926.81;4964817;28;20062;-64
2022/06/01 00:33:10;;;;;;;11.75;7.88;;;;;;;21.93;50.29;99921.81;4955467;28;20478;-63
2022/06/01 00:35:35;;;;;;;10.80;8.27;;;;;;;21.93;50.43;99929.03;4954991;28;20375;-64
2022/06/01 00:38:01;;;;;;;11.00;8.05;;;;;;;21.93;50.31;99934.41;4969621;28;20035;-64
2022/06/01 00:40:28;;;;;;;10.38;7.35;;;;;;;21.93;50.33;99937.97;4964381;28;20101;-63
2022/06/01 00:42:59;;;;;;;10.00;8.18;;;;;;;21.92;50.52;99947.06;4957016;28;20490;-64
2022/06/01 00:45:28;;;;;;;12.93;7.90;;;;;;;21.91;50.43;99940.00;4974410;28;20093;-64
2022/06/01 00:47:53;;;;;;;13.95;8.52;;;;;;;21.91;50.66;99947.25;4958515;28;20046;-65
2022/06/01 00:50:26;;;;;;;10.75;8.18;;;;;;;21.91;50.60;99945.41;4955258;28;20045;-63
2022/06/01 00:52:56;;;;;;;13.48;9.88;;;;;;;21.90;50.58;99949.09;4954644;28;20125;-64
2022/06/01 00:55:28;;;;;;;13.48;9.70;;;;;;;21.89;50.61;99946.63;4954714;29;20506;-64
2022/06/01 00:58:03;;;;;;;11.85;8.70;;;;;;;21.89;50.74;99941.22;4954462;28;20836;-65
2022/06/01 01:00:34;;;;;;;12.60;9.48;;;;;;;21.88;50.76;99950.31;4954455;28;20487;-64
2022/06/01 01:03:02;;;;;;;12.02;9.35;;;;;;;21.88;50.82;99942.25;4960647;28;20503;-64
2022/06/01 01:05:30;;;;;;;11.32;8.75;;;;;;;21.88;50.69;99948.44;4955226;28;20039;-64
2022/06/01 01:07:57;;;;;;;13.35;9.82;;;;;;;21.87;50.73;99951.34;4937160;29;20504;-66
2022/06/01 01:10:23;;;;;;;12.98;9.15;;;;;;;21.86;50.76;99955.88;4964414;28;20066;-65
2022/06/01 01:13:04;;;;;;;13.90;9.85;;;;;;;21.85;50.74;99946.13;4958778;28;20070;-65
2022/06/01 01:15:39;;;;;;;10.57;8.55;;;;;;;21.84;50.75;99955.22;4969937;28;20039;-65
2022/06/01 01:18:08;;;;;;;11.20;9.13;;;;;;;21.84;50.78;99949.84;4973739;28;20093;-64
2022/06/01 01:20:40;;;;;;;14.57;10.25;;;;;;;21.84;50.82;99957.91;4956331;28;20031;-67
2022/06/01 01:23:16;;;;;;;15.20;9.35;;;;;;;21.84;50.78;99962.47;4956172;28;20577;-66
2022/06/01 01:25:42;;;;;;;12.85;9.07;;;;;;;21.83;51.01;99963.50;4954700;28;20038;-66
2022/06/01 01:28:09;;;;;;;11.57;9.35;;;;;;;21.84;51.01;99963.31;4954377;29;20403;-65
2022/06/01 01:30:38;;;;;;;13.15;10.48;;;;;;;21.82;51.09;99954.59;4954666;28;20042;-63
2022/06/01 01:33:03;;;;;;;12.75;10.35;;;;;;;21.82;51.06;99957.28;4971595;28;20047;-66
2022/06/01 01:35:29;;;;;;;11.65;9.65;;;;;;;21.81;51.00;99955.63;4963285;28;20038;-65
2022/06/01 01:37:57;;;;;;;12.93;10.38;;;;;;;21.82;51.08;99957.28;4970215;28;20458;-66
2022/06/01 01:40:25;;;;;;;12.07;10.07;;;;;;;21.82;50.88;99953.75;4974202;28;20031;-66
2022/06/01 01:42:52;;;;;;;12.63;9.15;;;;;;;21.82;51.18;99956.44;4958831;28;20069;-66
2022/06/01 01:45:26;;;;;;;13.73;9.63;;;;;;;21.82;51.05;99965.38;4954295;29;20035;-65
2022/06/01 01:47:52;;;;;;;12.00;9.57;;;;;;;21.81;51.09;99961.00;4954463;28;20152;-66
2022/06/01 01:50:19;;;;;;;12.77;9.57;;;;;;;21.82;50.92;99972.59;4955092;28;20098;-64
2022/06/01 01:52:46;;;;;;;12.95;10.15;;;;;;;21.80;51.01;99962.03;4971238;28;20040;-64
2022/06/01 01:55:32;;;;;;;12.50;10.13;;;;;;;21.81;51.13;99969.09;4971156;28;20057;-65
2022/06/01 01:58:29;;;;;;;13.73;10.00;;;;;;;21.80;50.92;99960.16;4954037;29;20078;-65
2022/06/01 02:01:02;;;;;;;11.98;9.32;;;;;;;21.79;51.07;99963.84;4955227;28;20035;-65
2022/06/01 02:04:03;;;;;;;14.25;11.07;;;;;;;21.77;51.05;99960.50;4954365;28;20055;-64
2022/06/01 02:06:37;;;;;;;11.88;9.35;;;;;;;21.77;51.25;99967.78;4913195;28;20086;-64
2022/06/01 02:09:09;;;;;;;11.60;9.55;;;;;;;21.78;51.28;99964.88;4954456;29;20106;-64
2022/06/01 02:14:46;;;;;;;13.88;10.10;;;;;;;21.77;51.22;99965.91;4973877;28;20037;-66
2022/06/01 02:17:21;;;;;;;10.57;8.65;;;;;;;21.78;51.31;99964.06;4976082;28;20516;-66
2022/06/01 02:20:02;;;;;;;10.60;8.93;;;;;;;21.78;51.27;99956.81;4972561;28;20130;-66
2022/06/01 02:22:28;;;;;;;12.63;9.50;;;;;;;21.80;51.21;99959.31;4957752;28;20030;-65
2022/06/01 02:24:53;;;;;;;13.93;9.63;;;;;;;21.82;51.30;99961.81;4957931;29;20449;-64
2022/06/01 02:27:20;;;;;;;11.18;9.02;;;;;;;21.85;51.22;99964.16;4957726;28;20038;-64
2022/06/01 02:29:54;;;;;;;13.95;9.18;;;;;;;21.90;51.27;99959.88;4957644;28;20043;-66
2022/06/01 02:32:22;;;;;;;13.05;8.63;;;;;;;21.93;51.07;99962.22;4957530;28;20031;-66
2022/06/01 02:34:49;;;;;;;12.27;8.30;;;;;;;21.99;51.22;99965.16;4957508;29;20030;-66
2022/06/01 02:37:17;;;;;;;11.27;8.25;;;;;;;22.01;50.93;99960.44;4957506;28;20035;-66
2022/06/01 02:39:47;;;;;;;11.05;8.13;;;;;;;22.03;51.03;99959.25;4957633;29;20035;-66
2022/06/01 02:42:30;;;;;;;9.20;7.60;;;;;;;22.03;51.22;99964.63;4957681;28;20034;-66
2022/06/01 02:45:05;;;;;;;10.88;8.18;;;;;;;22.01;51.05;99971.22;4957521;29;20039;-65
2022/06/01 02:47:37;;;;;;;12.07;8.52;;;;;;;22.01;51.03;99971.22;4957516;28;20035;-66
2022/06/01 02:50:04;;;;;;;11.90;8.68;;;;;;;22.02;51.06;99968.34;4957670;28;20486;-66
2022/06/01 02:52:31;;;;;;;11.02;8.73;;;;;;;22.00;51.23;99959.63;4956865;28;20031;-67
2022/06/01 02:54:56;;;;;;;11.25;8.68;;;;;;;22.00;51.14;99962.31;4956960;29;20034;-65
2022/06/01 02:57:22;;;;;;;13.43;7.95;;;;;;;22.01;51.18;99965.81;4957147;28;20043;-65
2022/06/01 02:59:48;;;;;;;13.20;8.40;;;;;;;22.00;51.38;99965.00;4958770;28;20043;-65
2022/06/01 03:02:13;;;;;;;14.13;8.73;;;;;;;22.02;51.31;99967.50;4956834;28;20054;-65
2022/06/01 03:04:41;;;;;;;11.55;9.20;;;;;;;21.99;51.31;99959.78;4956912;29;20039;-65
2022/06/01 03:07:07;;;;;;;14.48;9.50;;;;;;;22.01;51.38;99958.59;4964147;28;20105;-66
2022/06/01 03:09:33;;;;;;;13.35;9.82;;;;;;;22.01;51.20;99963.97;4973042;28;20034;-65
2022/06/01 03:11:59;;;;;;;11.77;9.13;;;;;;;22.01;51.24;99961.28;4956964;28;20034;-64
2022/06/01 03:14:25;;;;;;;11.55;8.70;;;;;;;22.04;51.16;99960.94;4958397;28;20043;-65
2022/06/01 03:16:51;;;;;;;12.13;8.75;;;;;;;22.06;51.30;99966.94;4967707;28;20089;-68
2022/06/01 03:19:17;;;;;;;11.95;9.48;;;;;;;22.06;51.40;99966.13;4975996;28;20505;-65
2022/06/01 03:21:43;;;;;;;10.50;8.38;;;;;;;22.09;51.46;99976.53;4957818;28;20035;-63
2022/06/01 03:24:09;;;;;;;16.90;10.00;;;;;;;22.10;51.66;99972.81;4956685;29;20114;-66
2022/06/01 03:26:35;;;;;;;14.35;10.52;;;;;;;22.13;51.68;99975.13;4956710;28;20542;-66
2022/06/01 03:29:00;;;;;;;15.38;12.10;;;;;;;22.14;51.77;99974.09;4955318;29;20071;-66
2022/06/01 03:31:26;;;;;;;12.88;9.98;;;;;;;22.17;51.75;99965.66;4956446;28;20073;-65
2022/06/01 03:33:51;;;;;;;15.43;10.15;;;;;;;22.23;51.63;99975.69;4957131;28;20122;-65
2022/06/01 03:36:17;;;;;;;17.40;10.30;;;;;;;22.32;51.61;99971.03;4958574;28;20086;-65
2022/06/01 03:38:42;;;;;;;12.77;9.43;;;;;;;22.46;51.51;99963.16;4956612;29;20042;-66
2022/06/01 03:41:08;;;;;;;13.15;9.85;;;;;;;22.59;51.34;99962.47;4956696;28;20042;-67
2022/06/01 03:46:17;;;;;;;14.02;10.68;;;;;;;22.86;50.78;99972.53;4954887;28;20043;-65
2022/06/01 03:48:43;;;;;;;17.50;10.05;;;;;;;22.99;50.37;99973.72;4956681;29;20039;-66
2022/06/01 03:51:09;;;;;;;14.73;10.80;;;;;;;23.15;49.93;99976.16;4959699;28;20034;-65
2022/06/01 03:53:34;;;;;;;11.75;9.65;;;;;;;23.24;49.90;99970.66;4975649;28;20089;-66
2022/06/01 03:56:00;;;;;;;15.23;9.82;;;;;;;23.26;49.79;99976.69;4975517;28;20477;-65
2022/06/01 03:58:26;;;;;;;11.48;9.48;;;;;;;23.24;49.51;99973.34;4975414;28;20043;-67
2022/06/01 04:00:51;;;;;;;15.18;10.60;;;;;;;23.20;49.47;99964.81;4959813;28;20043;-66
2022/06/01 04:03:17;;;;;;;11.07;8.75;;;;;;;23.19;49.56;99956.84;4955799;29;20511;-66
2022/06/01 04:05:44;;;;;;;12.80;9.30;;;;;;;23.19;49.74;99962.25;4955944;28;20031;-68
2022/06/01 04:08:10;;;;;;;11.07;9.15;;;;;;;23.17;49.83;99963.28;4955942;28;20046;-67
2022/06/01 04:10:38;;;;;;;13.38;10.15;;;;;;;23.19;49.36;99962.25;4954752;28;20042;-67
2022/06/01 04:13:04;;;;;;;11.73;9.07;;;;;;;23.18;49.39;99966.84;4969259;28;20046;-66
2022/06/01 04:15:29;;;;;;;9.40;7.68;;;;;;;23.20;49.44;99961.22;4953829;29;20026;-67
2022/06/01 04:17:55;;;;;;;10.00;8.63;;;;;;;23.21;49.46;99957.53;4972060;28;20066;-66
2022/06/01 04:20:21;;;;;;;11.07;8.40;;;;;;;23.22;49.66;99957.34;4966167;28;20070;-69
2022/06/01 04:22:46;;;;;;;12.48;8.63;;;;;;;23.25;49.61;99961.53;4955935;28;20047;-69
2022/06/01 04:25:16;;;;;;;12.90;9.23;;;;;;;23.28;49.52;99961.97;4955582;28;20100;-67
2022/06/01 04:27:42;;;;;;;9.90;7.85;;;;;;;23.33;49.18;99963.25;4970452;28;20043;-68
2022/06/01 04:30:10;;;;;;;12.48;9.10;;;;;;;23.36;49.17;99965.56;4970309;28;20049;-66
2022/06/01 04:32:36;;;;;;;10.18;6.95;;;;;;;23.40;49.01;99966.84;4962751;28;20045;-68
2022/06/01 04:35:05;;;;;;;8.73;7.40;;;;;;;23.43;48.81;99969.16;4967521;28;20035;-67
2022/06/01 04:37:30;;;;;;;9.07;7.07;;;;;;;23.46;49.02;99966.88;4955378;28;20045;-66
2022/06/01 04:39:56;;;;;;;10.00;6.93;;;;;;;23.52;48.87;99967.16;4955269;28;20118;-67
2022/06/01 04:42:21;;;;;;;8.18;7.00;;;;;;;23.64;48.48;99970.16;4955151;28;20097;-68
2022/06/01 04:44:47;;;;;;;12.55;6.50;;;;;;;23.74;48.44;99971.50;4955455;29;20085;-65
2022/06/01 04:47:13;;;;;;;9.90;6.85;;;;;;;23.90;48.45;99967.63;4954475;28;20047;-68
2022/06/01 04:49:39;;;;;;;8.80;6.30;;;;;;;24.11;48.02;99973.19;4970874;28;20093;-68
2022/06/01 04:52:05;;;;;;;8.50;6.32;;;;;;;24.34;47.60;99970.19;4954938;28;20446;-65
2022/06/01 04:54:31;;;;;;;7.85;5.15;;;;;;;24.52;47.27;99978.59;4955225;29;20034;-67
2022/06/01 04:56:56;;;;;;;9.88;6.22;;;;;;;24.69;46.71;99967.44;4954781;28;20403;-67
2022/06/01 04:59:22;;;;;;;6.85;5.38;;;;;;;24.76;46.85;99979.13;4955128;28;20050;-66
2022/06/01 05:01:47;;;;;;;8.65;5.15;;;;;;;24.75;46.76;99969.34;4952999;28;20031;-66
2022/06/01 05:04:14;;;;;;;5.82;4.70;;;;;;;24.82;46.43;99977.47;4954844;29;20114;-67
2022/06/01 05:06:39;;;;;;;5.80;4.18;;;;;;;24.81;46.44;99971.22;4960223;28;20037;-66
2022/06/01 05:09:05;;;;;;;6.55;4.38;;;;;;;24.79;46.86;99970.59;4973946;28;20517;-66
2022/06/01 05:11:30;;;;;;;7.28;3.92;;;;;;;24.76;46.89;99972.88;4962489;28;20031;-66
2022/06/01 05:13:56;;;;;;;5.97;4.00;;;;;;;24.72;46.53;99969.72;4954637;28;20544;-68
2022/06/01 05:16:21;;;;;;;6.57;4.18;;;;;;;24.65;46.70;99982.38;4954779;28;20106;-66
2022/06/01 05:18:47;;;;;;;5.20;3.95;;;;;;;24.60;46.73;99974.88;4953305;28;20062;-67
2022/06/01 05:21:12;;;;;;;6.05;4.28;;;;;;;24.63;46.90;99974.47;4955098;28;20035;-68
2022/06/01 05:23:37;;;;;;;5.75;4.00;;;;;;;24.58;46.88;99971.53;4954826;29;20031;-66
2022/06/01 05:26:03;;;;;;;5.82;4.05;;;;;;;24.53;46.76;99966.75;4954660;28;20035;-66
2022/06/01 05:28:30;;;;;;;7.72;4.20;;;;;;;24.57;46.67;99969.03;4954507;28;20042;-66
2022/06/01 05:31:03;;;;;;;6.10;3.95;;;;;;;24.54;46.68;99959.44;4954916;28;20050;-66
2022/06/01 05:33:30;;;;;;;4.93;4.03;;;;;;;24.56;46.63;99945.75;4954564;29;20450;-68
2022/06/01 05:35:55;;;;;;;5.72;4.30;;;;;;;24.58;46.93;99954.47;4954277;28;20115;-67
2022/06/01 05:38:21;;;;;;;5.35;4.30;;;;;;;24.57;46.64;99947.38;4952836;29;20457;-67
2022/06/01 05:40:46;;;;;;;5.93;3.88;;;;;;;24.60;46.87;99949.69;4960324;28;20469;-68
2022/06/01 05:43:13;;;;;;;6.78;4.22;;;;;;;24.61;46.49;99937.84;4973636;28;20039;-67
2022/06/01 05:45:39;;;;;;;4.70;4.25;;;;;;;24.62;47.00;99948.47;4973817;28;20047;-68
2022/06/01 05:48:07;;;;;;;5.63;4.25;;;;;;;24.61;46.80;99944.09;4954404;28;20035;-66
2022/06/01 05:50:33;;;;;;;6.88;3.95;;;;;;;24.62;46.99;99944.91;4954755;28;20117;-67
2022/06/01 05:52:58;;;;;;;6.30;4.15;;;;;;;24.63;46.96;99946.59;4958077;29;20463;-67
2022/06/01 05:55:24;;;;;;;7.60;4.85;;;;;;;24.61;46.60;99938.69;4956848;29;20035;-69
2022/06/01 05:57:49;;;;;;;4.45;3.70;;;;;;;24.63;46.70;99942.00;4973044;28;20393;-66
2022/06/01 06:00:16;;;;;;;4.40;3.78;;;;;;;24.62;46.42;99934.09;4969933;28;20047;-68
2022/06/01 06:02:42;;;;;;;5.28;3.80;;;;;;;24.61;46.74;99941.38;4962275;28;20051;-66
2022/06/01 06:07:55;;;;;;;4.60;3.53;;;;;;;24.59;46.50;99929.94;4958426;28;20058;-66
2022/06/01 06:10:21;;;;;;;7.55;4.30;;;;;;;24.59;46.50;99935.34;4956263;28;20042;-66
2022/06/01 06:12:47;;;;;;;4.90;4.07;;;;;;;24.57;46.49;99926.59;4957957;28;20047;-68
2022/06/01 06:15:14;;;;;;;5.93;3.63;;;;;;;24.54;46.69;99927.00;4957819;29;20027;-66
2022/06/01 06:17:39;;;;;;;6.35;4.30;;;;;;;24.53;46.83;99933.44;4957870;28;20114;-66
2022/06/01 06:20:05;;;;;;;6.18;3.30;;;;;;;24.49;46.56;99930.31;4956386;28;20453;-67
2022/06/01 06:22:31;;;;;;;4.20;3.33;;;;;;;24.46;46.69;99936.13;4963816;28;20030;-67
2022/06/01 06:24:56;;;;;;;6.03;3.90;;;;;;;24.41;46.50;99924.25;4965180;28;20435;-67
2022/06/01 06:27:22;;;;;;;5.03;3.33;;;;;;;24.37;46.71;99931.94;4957720;28;20406;-67
2022/06/01 06:29:47;;;;;;;6.88;3.13;;;;;;;24.31;46.76;99933.56;4955814;29;20508;-66
2022/06/01 06:32:12;;;;;;;7.68;3.08;;;;;;;24.30;46.57;99937.31;4957417;28;20043;-67
2022/06/01 06:34:38;;;;;;;3.60;3.10;;;;;;;24.27;46.85;99935.00;4957507;29;20038;-67
2022/06/01 06:37:04;;;;;;;6.05;3.33;;;;;;;24.25;46.73;99931.66;4957556;28;20027;-68
2022/06/01 06:39:30;;;;;;;6.40;3.17;;;;;;;24.22;46.59;99923.94;4958121;28;20132;-66
2022/06/01 06:41:55;;;;;;;6.72;3.20;;;;;;;24.20;46.83;99920.63;4975208;28;20039;-66
2022/06/01 06:44:21;;;;;;;7.45;3.25;;;;;;;24.18;46.58;99922.72;4976950;28;20038;-67
2022/06/01 06:46:46;;;;;;;4.03;2.42;;;;;;;24.16;47.06;99922.06;4964340;28;20122;-67
2022/06/01 06:49:11;;;;;;;8.20;3.45;;;;;;;24.15;46.74;99912.28;4957177;29;20057;-68
2022/06/01 06:51:37;;;;;;;7.80;3.20;;;;;;;24.14;46.86;99921.44;4955557;28;20039;-68
2022/06/01 06:54:03;;;;;;;5.10;3.28;;;;;;;24.12;46.57;99916.22;4976135;28;20041;-66
2022/06/01 06:56:29;;;;;;;7.63;3.08;;;;;;;24.11;46.86;99917.28;4976460;28;20046;-67
2022/06/01 06:58:55;;;;;;;4.75;3.22;;;;;;;24.08;46.64;99906.84;4960274;28;20537;-68
2022/06/01 07:01:20;;;;;;;7.03;3.35;;;;;;;24.08;46.97;99917.66;4957321;28;20130;-65
2022/06/01 07:03:45;;;;;;;5.28;2.65;;;;;;;24.08;47.19;99923.06;4958917;28;20083;-66
2022/06/01 07:06:14;;;;;;;4.93;3.10;;;;;;;24.06;46.88;99920.56;4963354;28;20038;-66
2022/06/01 07:08:42;;;;;;;5.40;2.95;;;;;;;24.05;46.51;99913.47;4976089;28;20114;-67
2022/06/01 07:11:08;;;;;;;4.03;2.92;;;;;;;24.04;46.48;99911.81;4962666;28;20041;-66
2022/06/01 07:13:35;;;;;;;5.75;2.83;;;;;;;24.03;46.65;99912.03;4950657;28;20116;-67
2022/06/01 07:16:00;;;;;;;6.28;3.33;;;;;;;24.02;46.55;99908.50;4937812;29;20059;-67
2022/06/01 07:18:25;;;;;;;4.75;3.17;;;;;;;24.01;46.44;99909.53;4937631;29;20396;-66
2022/06/01 07:20:51;;;;;;;5.22;2.70;;;;;;;24.00;46.43;99912.41;4937750;29;20420;-68
2022/06/01 07:23:16;;;;;;;5.57;3.10;;;;;;;23.99;46.05;99914.28;4955266;28;20533;-69
2022/06/01 07:25:42;;;;;;;4.45;2.50;;;;;;;23.98;46.42;99918.03;4955129;28;20086;-67
2022/06/01 07:28:08;;;;;;;4.05;2.63;;;;;;;23.98;46.16;99915.31;4956934;28;20046;-68
2022/06/01 07:30:34;;;;;;;4.20;2.80;;;;;;;23.98;46.16;99911.78;4965074;28;20035;-68
2022/06/01 07:32:59;;;;;;;3.78;2.33;;;;;;;23.97;45.91;99919.06;4975737;28;20030;-66
2022/06/01 07:35:25;;;;;;;3.38;2.75;;;;;;;23.97;46.32;99910.13;4965785;28;20038;-67
2022/06/01 07:43:21;;;;;;;4.90;2.40;;;;;;;23.95;45.89;99926.50;4955012;28;20450;-67
2022/06/01 07:45:48;;;;;;;5.72;2.30;;;;;;;23.95;46.19;99914.88;4956513;28;20392;-66
2022/06/01 07:48:16;;;;;;;3.10;2.58;;;;;;;23.93;46.09;99907.78;4939710;28;20039;-68
2022/06/01 07:50:42;;;;;;;4.25;2.50;;;;;;;23.95;45.44;99917.56;4956529;28;20079;-66
2022/06/01 07:53:09;;;;;;;4.13;2.25;;;;;;;23.95;45.68;99918.38;4954696;29;20039;-67
2022/06/01 07:55:35;;;;;;;3.13;2.38;;;;;;;23.95;45.24;99928.38;4956054;28;20023;-67
2022/06/01 07:58:01;;;;;;;4.43;2.50;;;;;;;23.95;45.65;99922.97;4962661;28;20039;-66
2022/06/01 08:00:27;;;;;;;4.95;2.20;;;;;;;23.95;45.74;99923.78;4966772;28;20543;-68
2022/06/01 08:02:53;;;;;;;4.70;2.28;;;;;;;23.95;45.41;99926.50;4955430;28;20051;-68
2022/06/01 08:05:20;;;;;;;5.47;2.85;;;;;;;23.96;45.69;99916.53;4955960;29;20034;-69
2022/06/01 08:07:45;;;;;;;3.22;2.25;;;;;;;23.96;45.69;99922.78;4952439;28;20133;-67
2022/06/01 08:10:13;;;;;;;4.72;2.03;;;;;;;23.99;45.52;99924.25;4944382;28;20490;-69
2022/06/01 08:15:23;;;;;;;2.88;1.67;;;;;;;24.02;45.49;99931.97;4936429;29;20062;-69
2022/06/01 08:17:49;;;;;;;3.92;2.20;;;;;;;24.03;45.25;99920.13;4951953;28;20090;-66
2022/06/01 08:20:15;;;;;;;4.93;2.25;;;;;;;24.04;45.24;99932.59;4958820;28;20046;-68
2022/06/01 08:22:42;;;;;;;5.80;2.20;;;;;;;24.05;45.13;99924.28;4957439;28;20051;-68
2022/06/01 08:25:10;;;;;;;2.67;2.20;;;;;;;24.07;45.52;99929.50;4955851;29;20080;-68
2022/06/01 08:27:36;;;;;;;4.32;1.77;;;;;;;24.07;45.49;99926.81;4955200;28;20039;-68
2022/06/01 08:30:02;;;;;;;3.25;2.05;;;;;;;24.07;45.12;99927.63;4955953;28;20047;-68
2022/06/01 08:32:27;;;;;;;4.38;1.95;;;;;;;24.08;45.24;99932.00;4962766;28;20406;-66
2022/06/01 08:34:52;;;;;;;4.03;2.35;;;;;;;24.10;45.58;99930.97;4964822;28;20045;-65
2022/06/01 08:37:18;;;;;;;2.90;1.80;;;;;;;24.10;45.35;99929.13;4953808;28;20050;-66
2022/06/01 08:39:44;;;;;;;7.20;1.70;;;;;;;24.10;45.36;99931.81;4973276;28;20042;-66
2022/06/01 08:42:16;;;;;;;4.55;2.03;;;;;;;24.11;45.51;99929.94;4971886;28;20118;-66
2022/06/01 08:44:45;;;;;;;4.10;2.05;;;;;;;24.09;45.47;99930.16;4974597;28;20035;-68
2022/06/01 08:47:37;;;;;;;4.40;1.75;;;;;;;24.07;45.21;99926.81;4966544;28;20061;-68
2022/06/01 08:50:08;;;;;;;2.58;1.60;;;;;;;24.07;45.23;99924.09;4955404;28;20039;-65
2022/06/01 08:52:33;;;;;;;2.80;1.88;;;;;;;24.07;45.38;99921.41;4974038;28;20034;-65
2022/06/01 08:54:59;;;;;;;5.25;2.13;;;;;;;24.08;45.57;99923.06;4974508;28;20112;-65
2022/06/01 08:57:43;;;;;;;3.22;1.90;;;;;;;24.10;45.23;99925.56;4967985;28;20192;-65
2022/06/01 09:00:16;;;;;;;5.88;2.00;;;;;;;24.10;45.42;99920.16;4966147;28;20508;-66
2022/06/01 09:03:20;;;;;;;4.47;2.67;;;;;;;24.11;45.11;99928.09;4952726;28;20051;-65
2022/06/01 09:05:53;;;;;;;2.13;1.73;;;;;;;24.10;45.63;99925.56;4949080;28;20051;-67
2022/06/01 09:08:27;;;;;;;3.95;1.75;;;;;;;24.08;45.29;99929.31;4955249;29;20057;-66
2022/06/01 09:11:01;;;;;;;3.72;1.88;;;;;;;24.10;45.41;99931.81;4963018;28;20039;-66
2022/06/01 09:13:38;;;;;;;3.05;2.00;;;;;;;24.10;45.36;99933.69;4951086;28;20037;-65
2022/06/01 09:16:32;;;;;;;6.18;1.60;;;;;;;24.07;45.68;99927.63;4952112;28;20055;-63
2022/06/01 09:18:58;;;;;;;11.05;2.88;;;;;;;24.07;45.59;99934.91;4942437;28;20533;-65
2022/06/01 09:24:30;;;;;;;3.95;1.65;;;;;;;24.00;45.98;99912.41;4950622;29;20034;-65
2022/06/01 09:27:01;;;;;;;3.75;1.92;;;;;;;23.97;45.74;99932.56;4956995;28;20033;-67
2022/06/01 09:29:32;;;;;;;5.13;1.85;;;;;;;23.94;45.95;99927.53;4964940;28;20070;-65
2022/06/01 09:32:04;;;;;;;2.25;1.48;;;;;;;23.92;45.80;99929.59;4961487;28;20073;-68
2022/06/01 09:34:39;;;;;;;3.05;2.00;;;;;;;23.90;45.81;99915.44;4953510;28;20086;-69
2022/06/01 09:37:20;;;;;;;7.57;2.08;;;;;;;23.88;45.85;99929.16;4957534;28;20035;-70
2022/06/01 09:39:56;;;;;;;6.60;1.90;;;;;;;23.87;45.99;99918.56;4961809;28;20085;-69
2022/06/01 09:42:34;;;;;;;6.28;1.80;;;;;;;23.86;45.88;99914.19;4956481;28;20034;-69
2022/06/01 09:45:02;;;;;;;5.97;2.03;;;;;;;23.84;45.96;99918.97;4958074;28;20187;-68
2022/06/01 09:47:39;;;;;;;5.43;1.90;;;;;;;23.85;46.00;99923.34;4958481;28;20145;-69
2022/06/01 09:50:25;;;;;;;6.80;1.77;;;;;;;23.84;45.93;99925.19;4964279;28;20117;-68
2022/06/01 09:52:57;;;;;;;6.97;2.50;;;;;;;23.83;45.94;99920.00;4963054;28;20066;-67
2022/06/01 09:55:25;;;;;;;4.80;2.03;;;;;;;23.83;46.12;99920.81;4963612;28;20042;-68
2022/06/01 09:58:07;;;;;;;6.75;2.80;;;;;;;23.84;46.22;99921.66;4956391;28;20499;-66
2022/06/01 10:06:20;;;;;;;6.95;1.95;;;;;;;23.80;46.34;99918.53;4954367;28;20034;-69
2022/06/01 10:09:10;;;;;;;10.30;2.30;;;;;;;23.79;46.25;99919.56;4952154;29;20498;-66
2022/06/01 10:11:46;;;;;;;9.10;2.40;;;;;;;23.77;46.41;99911.63;4952222;28;20039;-65
2022/06/01 10:14:18;;;;;;;18.23;2.70;;;;;;;23.77;46.00;99910.81;4954470;29;20063;-65
2022/06/01 10:17:18;;;;;;;5.00;1.92;;;;;;;23.77;45.88;99913.50;4953587;28;20028;-65
2022/06/01 10:20:12;;;;;;;9.70;2.05;;;;;;;23.76;45.88;99915.38;4953863;28;20039;-67
2022/06/01 10:22:45;;;;;;;7.22;1.73;;;;;;;23.75;45.76;99919.09;4953408;28;20470;-70
2022/06/01 10:25:13;;;;;;;11.18;2.28;;;;;;;23.77;46.10;99900.81;4947252;29;20027;-66
2022/06/01 10:27:48;;;;;;;4.35;1.63;;;;;;;23.78;45.87;99910.59;4954165;28;20375;-69
2022/06/01 10:30:20;;;;;;;5.13;1.55;;;;;;;23.77;45.68;99905.41;4954262;29;20038;-69
2022/06/01 10:32:57;;;;;;;5.25;2.00;;;;;;;23.77;46.07;99908.13;4954205;28;20035;-68
2022/06/01 10:35:29;;;;;;;5.85;2.25;;;;;;;23.77;46.06;99916.22;4953804;29;20027;-68
2022/06/01 10:38:10;;;;;;;3.65;2.22;;;;;;;23.76;46.18;99917.25;4956000;28;20035;-70
2022/06/01 10:40:57;;;;;;;9.55;3.10;;;;;;;23.76;46.23;99920.75;4957594;28;20082;-68
2022/06/01 10:44:00;;;;;;;5.78;2.25;;;;;;;23.75;46.23;99916.41;4957694;29;20042;-69
2022/06/01 10:46:43;;;;;;;4.30;2.00;;;;;;;23.74;46.12;99928.25;4926788;28;20491;-71
2022/06/01 10:49:22;;;;;;;7.88;2.35;;;;;;;23.76;46.30;99933.47;4957531;29;20035;-71
2022/06/01 10:52:23;;;;;;;8.25;2.45;;;;;;;23.75;46.33;99934.50;4957121;28;20101;-72
2022/06/01 10:55:24;;;;;;;4.80;2.47;;;;;;;23.74;46.44;99933.66;4953953;29;20053;-69
2022/06/01 10:57:50;;;;;;;;;;;;;;;23.66;46.60;99941.09;4957698;28;20119;-69
2022/06/01 11:00:19;;;;;;;2.53;2.28;;;;;;;23.68;46.93;99929.03;4956867;29;19962;-69
2022/06/01 11:03:15;;;;;;;8.15;2.80;;;;;;;23.72;46.70;99945.69;4956804;28;20109;-71
2022/06/01 11:06:01;;;;;;;5.63;2.70;;;;;;;23.70;46.98;99935.09;4956770;28;20117;-71
2022/06/01 11:08:36;;;;;;;5.72;3.30;;;;;;;23.72;46.91;99938.44;4956133;29;20046;-71
2022/06/01 11:11:18;;;;;;;6.05;2.70;;;;;;;23.74;46.72;99930.13;4957071;28;20055;-67
2022/06/01 11:14:11;;;;;;;5.70;2.65;;;;;;;23.73;46.96;99934.69;4956657;29;20039;-66
2022/06/01 11:16:40;;;;;;;5.82;2.42;;;;;;;23.72;46.77;99933.03;4956357;28;20037;-71
2022/06/01 11:19:21;;;;;;;5.32;2.50;;;;;;;23.72;47.18;99933.03;4957291;29;20090;-68
2022/06/01 11:22:05;;;;;;;16.60;2.50;;;;;;;23.72;47.01;99943.84;4956797;28;20070;-67
2022/06/01 11:25:08;;;;;;;3.65;2.20;;;;;;;23.73;46.77;99944.66;4956759;29;20071;-67
2022/06/01 11:28:02;;;;;;;8.00;2.42;;;;;;;23.70;47.11;99945.88;4937613;29;20036;-68
2022/06/01 11:30:50;;;;;;;6.13;2.08;;;;;;;23.72;47.10;99951.09;4898591;29;20412;-71
2022/06/01 11:33:41;;;;;;;2.75;2.05;;;;;;;23.70;47.09;99937.78;4937664;29;20459;-68
2022/06/01 11:36:21;;;;;;;4.07;2.10;;;;;;;23.69;46.92;99936.13;4952401;28;20031;-69
2022/06/01 11:38:53;;;;;;;4.47;1.98;;;;;;;23.68;47.11;99937.16;4956706;29;20070;-72
2022/06/01 11:41:24;;;;;;;3.28;2.20;;;;;;;23.70;47.31;99942.34;4956348;28;20090;-68
2022/06/01 11:44:01;;;;;;;;;;;;;;;23.61;47.29;99938.94;4957057;29;20035;-69
2022/06/01 11:46:51;;;;;;;3.55;1.73;;;;;;;23.63;47.23;99942.28;4956353;28;19914;-69
2022/06/01 11:49:36;;;;;;;4.45;2.22;;;;;;;23.64;47.28;99946.66;4955131;28;20039;-72
2022/06/01 11:52:14;;;;;;;2.42;2.03;;;;;;;23.66;47.18;99941.91;4956370;28;20045;-72
2022/06/01 11:54:39;;;;;;;3.72;1.90;;;;;;;23.65;47.01;99944.81;4956014;29;20062;-69
2022/06/01 11:57:24;;;;;;;4.25;2.20;;;;;;;23.67;47.19;99937.34;4955646;28;20031;-69
2022/06/01 12:00:27;;;;;;;2.72;1.85;;;;;;;23.68;47.01;99944.41;4955927;29;20458;-71
2022/06/01 12:02:53;;;;;;;3.83;1.80;;;;;;;23.65;47.07;99939.41;4908294;29;20056;-71
2022/06/01 12:05:27;;;;;;;3.78;1.85;;;;;;;23.68;47.05;99950.66;4936426;29;20131;-72
2022/06/01 12:07:57;;;;;;;5.32;1.80;;;;;;;23.70;47.26;99950.44;4936571;29;20039;-71
2022/06/01 12:10:31;;;;;;;6.10;1.80;;;;;;;23.68;47.44;99966.88;4936881;29;20522;-70